Terminal Aerodrome Forecast
Issued by NWS

Home | Current Version | Previous Version | Text Only | Print | Product List | Glossary On
Versions: 1 2 3 4 5 6 7 8 9 10 11 12 13 14 15 16 17 18 19 20 21 22 23 24 25 26 27 28 29
000
FTUS45 KGJT 051129
TAFEGE
TAF
KEGE 051129Z 0512/0612 35006KT P6SM VCSH SCT070 BKN110
      TEMPO 0512/0514 -RA SCT045 OVC060
     FM051500 VRB03KT P6SM SCT060 BKN150
     FM051900 21008KT P6SM VCSH SCT080 BKN140
     FM060200 16005KT P6SM SCT080 SCT140
     FM060600 VRB03KT P6SM SCT140
      AMD LTD TO CLD VIS AND WIND TIL 051300=

USA.gov is the U.S. government's official web portal to all federal, state and local government web resources and services.